createdAt,value
2018-06-15T00:00:26.292Z,78.10
2018-06-15T00:01:26.266Z,79.20
2018-06-15T00:02:26.236Z,68.80
2018-06-15T00:03:26.234Z,76.90
2018-06-15T00:04:26.184Z,64.00
2018-06-15T00:05:26.171Z,69.80
2018-06-15T00:06:26.134Z,63.60
2018-06-15T00:07:26.112Z,75.30
2018-06-15T00:08:26.095Z,67.30
2018-06-15T00:09:26.061Z,70.90
2018-06-15T00:10:26.043Z,69.30
2018-06-15T00:11:26.017Z,63.30
2018-06-15T00:12:25.989Z,69.20
2018-06-15T00:13:25.962Z,65.20
2018-06-15T00:14:25.939Z,68.70
2018-06-15T00:15:25.914Z,75.30
2018-06-15T00:16:25.888Z,81.40
2018-06-15T00:17:25.871Z,61.30
2018-06-15T00:18:25.840Z,59.50
2018-06-15T00:19:25.817Z,58.50
2018-06-15T00:20:25.802Z,61.60
2018-06-15T00:21:25.763Z,67.00
2018-06-15T00:22:25.746Z,61.90
2018-06-15T00:23:25.722Z,59.30
2018-06-15T00:24:25.692Z,72.90
2018-06-15T00:25:25.672Z,60.80
2018-06-15T00:26:25.639Z,85.00
2018-06-15T00:27:25.617Z,67.70
2018-06-15T00:28:25.605Z,58.50
2018-06-15T00:29:25.568Z,64.00
2018-06-15T00:30:25.538Z,62.60
2018-06-15T00:31:25.524Z,68.10
2018-06-15T00:32:25.498Z,62.50
2018-06-15T00:33:25.474Z,61.10
2018-06-15T00:34:25.442Z,61.60
2018-06-15T00:35:25.424Z,63.50
2018-06-15T00:36:25.392Z,68.60
2018-06-15T00:37:25.371Z,64.20
2018-06-15T00:38:25.346Z,71.40
2018-06-15T00:39:25.314Z,67.70
2018-06-15T00:40:25.302Z,71.90
2018-06-15T00:41:25.275Z,69.20
2018-06-15T00:42:25.262Z,57.80
2018-06-15T00:43:25.219Z,76.10
2018-06-15T00:44:25.196Z,70.30
2018-06-15T00:45:25.171Z,65.40
2018-06-15T00:46:25.147Z,69.90
2018-06-15T00:47:25.122Z,70.80
2018-06-15T00:48:25.099Z,69.30
2018-06-15T00:49:25.076Z,70.10
2018-06-15T00:50:25.063Z,71.90
2018-06-15T00:51:25.026Z,73.30
2018-06-15T00:52:25.000Z,70.30
2018-06-15T00:53:24.976Z,63.60
2018-06-15T00:54:24.948Z,68.80
2018-06-15T00:55:24.927Z,66.00
2018-06-15T00:56:24.896Z,78.40
2018-06-15T00:57:24.879Z,74.80
2018-06-15T00:58:24.849Z,71.10
2018-06-15T00:59:24.829Z,80.30
2018-06-15T01:00:24.799Z,87.70
2018-06-15T01:01:24.773Z,73.50
2018-06-15T01:02:24.751Z,85.00
2018-06-15T01:03:24.733Z,76.40
2018-06-15T01:04:24.700Z,78.00
2018-06-15T01:05:24.682Z,75.60
2018-06-15T01:06:24.650Z,79.70
2018-06-15T01:07:24.632Z,76.10
2018-06-15T01:08:24.598Z,88.10
2018-06-15T01:09:24.580Z,83.10
2018-06-15T01:10:24.546Z,85.30
2018-06-15T01:11:24.543Z,81.20
2018-06-15T01:12:24.505Z,92.40
2018-06-15T01:13:24.483Z,85.50
2018-06-15T01:14:24.460Z,89.40
2018-06-15T01:15:24.422Z,93.40
2018-06-15T01:16:24.420Z,97.50
2018-06-15T01:17:24.395Z,96.10
2018-06-15T01:18:24.350Z,87.90
2018-06-15T01:19:24.326Z,97.30
2018-06-15T01:20:24.305Z,111.60
2018-06-15T01:21:24.276Z,105.00
2018-06-15T01:22:24.254Z,94.40
2018-06-15T01:23:24.226Z,98.50
2018-06-15T01:24:24.207Z,91.40
2018-06-15T01:25:24.179Z,106.50
2018-06-15T01:26:24.159Z,101.40
2018-06-15T01:27:24.128Z,95.90
2018-06-15T01:28:24.101Z,109.60
2018-06-15T01:29:24.084Z,115.90
2018-06-15T01:30:24.054Z,115.60
2018-06-15T01:31:24.034Z,108.90
2018-06-15T01:32:24.001Z,105.20
2018-06-15T01:33:23.979Z,110.10
2018-06-15T01:34:23.959Z,122.20
2018-06-15T01:35:23.932Z,132.90
2018-06-15T01:36:23.913Z,118.20
2018-06-15T01:37:23.885Z,105.60
2018-06-15T01:38:23.856Z,101.00
2018-06-15T01:39:23.858Z,106.70
2018-06-15T01:40:23.802Z,103.40
2018-06-15T01:41:23.788Z,119.90
2018-06-15T01:42:23.759Z,115.40
2018-06-15T01:43:23.735Z,117.00
2018-06-15T01:44:23.712Z,120.20
2018-06-15T01:45:23.684Z,109.50
2018-06-15T01:46:23.657Z,108.60
2018-06-15T01:47:23.629Z,108.20
2018-06-15T01:48:23.623Z,124.90
2018-06-15T01:49:23.588Z,106.50
2018-06-15T01:50:23.557Z,107.20
2018-06-15T01:51:23.539Z,120.80
2018-06-15T01:52:23.504Z,117.20
2018-06-15T01:53:23.485Z,124.70
2018-06-15T01:54:23.472Z,105.40
2018-06-15T01:55:23.436Z,116.20
2018-06-15T01:56:23.415Z,128.40
2018-06-15T01:57:23.386Z,116.20
2018-06-15T01:58:23.360Z,108.30
2018-06-15T01:59:23.334Z,124.50
2018-06-15T02:00:23.313Z,127.70
2018-06-15T02:01:23.357Z,140.70
2018-06-15T02:02:23.258Z,117.60
2018-06-15T02:03:23.242Z,115.60
2018-06-15T02:04:23.210Z,116.20
2018-06-15T02:05:23.193Z,123.40
2018-06-15T02:06:23.165Z,122.50
2018-06-15T02:07:23.134Z,110.50
2018-06-15T02:08:23.118Z,120.60
2018-06-15T02:09:23.091Z,110.00
2018-06-15T02:10:23.065Z,123.50
2018-06-15T02:11:23.038Z,129.40
2018-06-15T02:12:23.012Z,119.80
2018-06-15T02:13:23.044Z,116.50
2018-06-15T02:14:22.992Z,107.80
2018-06-15T02:15:22.940Z,111.80
2018-06-15T02:16:22.926Z,110.50
2018-06-15T02:17:22.893Z,111.80
2018-06-15T02:18:22.870Z,108.60
2018-06-15T02:19:22.849Z,104.80
2018-06-15T02:20:22.816Z,105.60
2018-06-15T02:21:22.813Z,107.00
2018-06-15T02:22:22.765Z,126.90
2018-06-15T02:23:22.746Z,119.30
2018-06-15T02:24:22.720Z,123.80
2018-06-15T02:25:22.691Z,130.30
2018-06-15T02:26:22.672Z,128.10
2018-06-15T02:27:22.644Z,125.70
2018-06-15T02:28:22.615Z,110.70
2018-06-15T02:29:22.601Z,122.70
2018-06-15T02:30:22.568Z,108.50
2018-06-15T02:31:22.570Z,119.60
2018-06-15T02:32:22.523Z,150.10
2018-06-15T02:33:22.495Z,129.70
2018-06-15T02:34:22.472Z,136.80
2018-06-15T02:35:22.446Z,145.20
2018-06-15T02:36:22.427Z,130.70
2018-06-15T02:37:22.402Z,150.50
2018-06-15T02:38:22.367Z,166.10
2018-06-15T02:39:22.354Z,149.20
2018-06-15T02:40:22.323Z,132.30
2018-06-15T02:41:22.297Z,133.00
2018-06-15T02:42:22.277Z,128.40
2018-06-15T02:43:22.254Z,130.90
2018-06-15T02:44:22.226Z,132.40
2018-06-15T02:45:22.303Z,136.00
2018-06-15T02:46:22.171Z,138.80
2018-06-15T02:47:22.152Z,127.60
2018-06-15T02:48:22.131Z,123.60
2018-06-15T02:49:22.096Z,132.90
2018-06-15T02:50:22.072Z,125.60
2018-06-15T02:51:22.053Z,123.70
2018-06-15T02:52:22.024Z,131.80
2018-06-15T02:53:22.007Z,128.70
2018-06-15T02:54:21.981Z,141.50
2018-06-15T02:55:21.949Z,140.40
2018-06-15T02:56:21.932Z,132.70
2018-06-15T02:57:21.907Z,128.50
2018-06-15T02:58:21.898Z,127.00
2018-06-15T02:59:21.853Z,146.20
2018-06-15T03:00:21.833Z,169.50
2018-06-15T03:01:21.800Z,157.30
2018-06-15T03:02:21.790Z,171.80
2018-06-15T03:03:21.802Z,152.40
2018-06-15T03:04:21.733Z,154.70
2018-06-15T03:05:21.710Z,162.60
2018-06-15T03:06:21.679Z,168.00
2018-06-15T03:07:21.652Z,159.90
2018-06-15T03:08:21.634Z,153.20
2018-06-15T03:09:21.603Z,160.20
2018-06-15T03:10:21.583Z,163.60
2018-06-15T03:11:21.550Z,160.30
2018-06-15T03:12:21.535Z,153.10
2018-06-15T03:13:21.506Z,160.70
2018-06-15T03:14:21.479Z,183.70
2018-06-15T03:15:21.579Z,156.30
2018-06-15T03:16:21.432Z,165.90
2018-06-15T03:17:21.410Z,170.60
2018-06-15T03:18:21.377Z,146.50
2018-06-15T03:19:21.368Z,154.40
2018-06-15T03:20:21.337Z,148.10
2018-06-15T03:21:21.301Z,140.30
2018-06-15T03:22:21.294Z,151.00
2018-06-15T03:23:21.252Z,141.70
2018-06-15T03:24:21.235Z,177.20
2018-06-15T03:25:21.207Z,160.60
2018-06-15T03:26:21.179Z,181.50
2018-06-15T03:27:21.155Z,163.20
2018-06-15T03:28:21.135Z,161.40
2018-06-15T03:29:21.108Z,164.40
2018-06-15T03:30:21.096Z,162.90
2018-06-15T03:31:21.060Z,178.50
2018-06-15T03:32:21.032Z,193.20
2018-06-15T03:33:21.022Z,163.20
2018-06-15T03:34:20.986Z,160.10
2018-06-15T03:35:20.965Z,155.90
2018-06-15T03:36:20.938Z,158.80
2018-06-15T03:37:20.907Z,152.50
2018-06-15T03:38:20.881Z,153.40
2018-06-15T03:39:20.874Z,136.50
2018-06-15T03:40:20.836Z,140.30
2018-06-15T03:41:20.819Z,139.40
2018-06-15T03:42:20.780Z,138.40
2018-06-15T03:43:20.761Z,148.90
2018-06-15T03:44:20.734Z,142.40
2018-06-15T03:45:20.713Z,132.90
2018-06-15T03:46:20.688Z,143.30
2018-06-15T03:47:20.662Z,138.20
2018-06-15T03:48:20.639Z,134.90
2018-06-15T03:49:20.611Z,145.40
2018-06-15T03:50:20.585Z,158.70
2018-06-15T03:51:20.559Z,135.80
2018-06-15T03:52:20.537Z,163.60
2018-06-15T03:53:20.509Z,172.90
2018-06-15T03:54:20.495Z,165.40
2018-06-15T03:55:20.594Z,171.10
2018-06-15T03:56:20.536Z,161.00
2018-06-15T03:57:20.420Z,137.30
2018-06-15T03:58:20.398Z,135.10
2018-06-15T03:59:20.363Z,123.20
2018-06-15T04:00:20.343Z,130.90
2018-06-15T04:01:20.320Z,133.30
2018-06-15T04:02:20.288Z,139.20
2018-06-15T04:03:20.271Z,131.00
2018-06-15T04:04:20.244Z,124.90
2018-06-15T04:05:20.219Z,132.10
2018-06-15T04:06:20.193Z,146.10
2018-06-15T04:07:20.179Z,131.80
2018-06-15T04:08:20.148Z,124.00
2018-06-15T04:09:20.120Z,131.10
2018-06-15T04:10:20.099Z,137.00
2018-06-15T04:11:20.071Z,136.70
2018-06-15T04:12:20.042Z,146.20
2018-06-15T04:13:20.019Z,145.80
2018-06-15T04:14:20.000Z,142.40
2018-06-15T04:15:19.969Z,135.00
2018-06-15T04:16:19.947Z,133.40
2018-06-15T04:17:19.928Z,159.30
2018-06-15T04:18:19.905Z,156.30
2018-06-15T04:19:19.869Z,136.20
2018-06-15T04:20:19.848Z,120.10
2018-06-15T04:21:19.824Z,143.60
2018-06-15T04:22:19.804Z,133.90
2018-06-15T04:23:19.781Z,135.20
2018-06-15T04:24:19.746Z,142.20
2018-06-15T04:25:19.724Z,139.00
2018-06-15T04:26:19.699Z,156.50
2018-06-15T04:27:19.679Z,127.00
2018-06-15T04:28:19.656Z,133.40
2018-06-15T04:29:19.631Z,138.30
2018-06-15T04:30:19.598Z,140.90
2018-06-15T04:31:19.582Z,120.10
2018-06-15T04:32:19.556Z,115.90
2018-06-15T04:33:19.527Z,110.90
2018-06-15T04:34:19.507Z,120.40
2018-06-15T04:35:19.480Z,109.70
2018-06-15T04:36:19.458Z,132.70
2018-06-15T04:37:19.441Z,131.40
2018-06-15T04:38:19.408Z,123.40
2018-06-15T04:39:19.384Z,118.30
2018-06-15T04:40:19.355Z,132.20
2018-06-15T04:41:19.337Z,123.00
2018-06-15T04:42:19.306Z,116.10
2018-06-15T04:43:19.285Z,117.00
2018-06-15T04:44:19.264Z,122.90
2018-06-15T04:45:19.233Z,116.70
2018-06-15T04:46:19.215Z,112.40
2018-06-15T04:47:19.218Z,132.20
2018-06-15T04:48:19.158Z,109.70
2018-06-15T04:49:19.143Z,107.90
2018-06-15T04:50:19.131Z,110.60
2018-06-15T04:51:19.089Z,110.30
2018-06-15T04:52:19.062Z,96.80
2018-06-15T04:53:19.043Z,100.10
2018-06-15T04:54:19.017Z,113.90
2018-06-15T04:55:18.990Z,114.00
2018-06-15T04:56:19.017Z,124.80
2018-06-15T04:57:18.946Z,119.80
2018-06-15T04:58:18.917Z,125.20
2018-06-15T04:59:19.012Z,125.80
2018-06-15T05:00:18.873Z,129.20
2018-06-15T05:01:18.851Z,136.30
2018-06-15T05:02:18.817Z,103.30
2018-06-15T05:03:18.816Z,113.20
2018-06-15T05:04:18.779Z,102.60
2018-06-15T05:05:18.744Z,112.20
2018-06-15T05:06:18.733Z,115.40
2018-06-15T05:07:18.703Z,101.30
2018-06-15T05:08:18.677Z,118.00
2018-06-15T05:09:18.691Z,124.20
2018-06-15T05:10:18.620Z,132.70
2018-06-15T05:11:18.600Z,111.40
2018-06-15T05:12:18.607Z,111.30
2018-06-15T05:13:18.552Z,112.20
2018-06-15T05:14:18.528Z,102.30
2018-06-15T05:15:18.505Z,136.60
2018-06-15T05:16:18.478Z,129.30
2018-06-15T05:17:18.532Z,144.70
2018-06-15T05:18:18.455Z,108.50
2018-06-15T05:19:18.409Z,105.40
2018-06-15T05:20:18.391Z,129.80
2018-06-15T05:21:18.366Z,120.50
2018-06-15T05:22:18.330Z,98.50
2018-06-15T05:23:18.313Z,96.40
2018-06-15T05:24:18.290Z,96.70
2018-06-15T05:25:18.257Z,117.70
2018-06-15T05:26:18.242Z,127.30
2018-06-15T05:27:18.217Z,110.60
2018-06-15T05:28:18.191Z,111.10
2018-06-15T05:29:18.167Z,106.10
2018-06-15T05:30:18.166Z,110.60
2018-06-15T05:31:18.114Z,107.20
2018-06-15T05:32:18.093Z,113.80
2018-06-15T05:33:18.073Z,97.90
2018-06-15T05:34:18.037Z,106.60
2018-06-15T05:35:18.030Z,95.00
2018-06-15T05:36:18.010Z,83.50
2018-06-15T05:37:17.965Z,101.70
2018-06-15T05:38:17.951Z,96.90
2018-06-15T05:39:17.920Z,88.00
2018-06-15T05:40:17.899Z,95.50
2018-06-15T05:41:17.873Z,111.70
2018-06-15T05:42:17.852Z,88.20
2018-06-15T05:43:17.824Z,93.20
2018-06-15T05:44:17.800Z,82.30
2018-06-15T05:45:17.776Z,109.10
2018-06-15T05:46:17.753Z,75.60
2018-06-15T05:47:17.728Z,74.00
2018-06-15T05:48:17.708Z,87.70
2018-06-15T05:49:17.675Z,86.20
2018-06-15T05:50:17.660Z,104.40
2018-06-15T05:51:17.635Z,87.30
2018-06-15T05:52:17.605Z,75.80
2018-06-15T05:53:17.592Z,73.50
2018-06-15T05:54:17.555Z,80.10
2018-06-15T05:55:17.538Z,78.10
2018-06-15T05:56:17.518Z,85.30
2018-06-15T05:57:17.484Z,82.60
2018-06-15T05:58:17.477Z,79.50
2018-06-15T05:59:17.455Z,88.20
2018-06-15T06:00:17.412Z,81.90
2018-06-15T06:01:17.396Z,91.00
2018-06-15T06:02:17.366Z,86.90
2018-06-15T06:03:17.347Z,95.50
2018-06-15T06:04:17.343Z,82.80
2018-06-15T06:05:17.300Z,88.70
2018-06-15T06:06:17.267Z,77.00
2018-06-15T06:07:17.284Z,78.80
2018-06-15T06:08:17.230Z,88.30
2018-06-15T06:09:17.197Z,77.50
2018-06-15T06:10:17.182Z,79.50
2018-06-15T06:11:17.157Z,74.30
2018-06-15T06:12:17.125Z,80.60
2018-06-15T06:13:17.108Z,72.90
2018-06-15T06:14:17.076Z,87.50
2018-06-15T06:15:17.057Z,67.30
2018-06-15T06:16:17.030Z,70.50
2018-06-15T06:17:17.003Z,84.50
2018-06-15T06:18:16.984Z,70.00
2018-06-15T06:19:16.957Z,83.50
2018-06-15T06:20:16.941Z,87.70
2018-06-15T06:21:16.917Z,103.20
2018-06-15T06:22:16.887Z,77.60
2018-06-15T06:23:16.874Z,95.10
2018-06-15T06:24:16.838Z,82.30
2018-06-15T06:25:16.817Z,95.10
2018-06-15T06:26:16.794Z,97.20
2018-06-15T06:27:16.772Z,89.50
2018-06-15T06:28:16.749Z,93.80
2018-06-15T06:29:16.716Z,102.10
2018-06-15T06:30:16.700Z,87.80
2018-06-15T06:31:16.684Z,77.50
2018-06-15T06:32:16.657Z,68.50
2018-06-15T06:33:16.631Z,69.50
2018-06-15T06:34:16.603Z,75.50
2018-06-15T06:35:16.581Z,60.00
2018-06-15T06:36:16.552Z,69.40
2018-06-15T06:37:16.529Z,79.90
2018-06-15T06:38:16.508Z,74.10
2018-06-15T06:39:16.480Z,66.20
2018-06-15T06:40:16.466Z,73.20
2018-06-15T06:41:16.437Z,58.60
2018-06-15T06:42:16.408Z,65.40
2018-06-15T06:43:16.387Z,61.40
2018-06-15T06:44:16.375Z,63.80
2018-06-15T06:45:16.339Z,55.40
2018-06-15T06:46:16.317Z,59.30
2018-06-15T06:47:16.291Z,55.70
2018-06-15T06:48:16.270Z,59.60
2018-06-15T06:49:16.246Z,58.90
2018-06-15T06:50:16.230Z,58.40
2018-06-15T06:51:16.192Z,56.60
2018-06-15T06:52:16.179Z,59.20
2018-06-15T06:53:16.147Z,64.40
2018-06-15T06:54:16.135Z,77.80
2018-06-15T06:55:16.101Z,56.30
2018-06-15T06:56:16.081Z,57.20
2018-06-15T06:57:16.079Z,65.40
2018-06-15T06:58:16.026Z,56.90
2018-06-15T06:59:16.006Z,55.80
2018-06-15T07:00:15.994Z,53.80
2018-06-15T07:01:15.964Z,54.70
2018-06-15T07:02:15.977Z,61.20
2018-06-15T07:03:15.910Z,53.60
2018-06-15T07:04:15.884Z,56.90
2018-06-15T07:05:15.872Z,49.40
2018-06-15T07:06:15.897Z,48.90
2018-06-15T07:07:15.817Z,50.20
2018-06-15T07:08:15.797Z,57.50
2018-06-15T07:09:15.786Z,56.80
2018-06-15T07:10:15.745Z,59.80
2018-06-15T07:11:15.768Z,55.30
2018-06-15T07:12:15.737Z,52.50
2018-06-15T07:13:15.740Z,48.10
2018-06-15T07:14:15.664Z,51.90
2018-06-15T07:15:15.628Z,50.20
2018-06-15T07:16:15.622Z,53.70
2018-06-15T07:17:15.594Z,47.00
2018-06-15T07:18:15.560Z,52.80
2018-06-15T07:19:15.544Z,46.90
2018-06-15T07:20:15.511Z,46.80
2018-06-15T07:21:15.487Z,44.40
2018-06-15T07:22:15.462Z,48.20
2018-06-15T07:23:15.438Z,50.60
2018-06-15T07:24:15.425Z,43.70
2018-06-15T07:25:15.397Z,44.90
2018-06-15T07:26:15.372Z,49.10
2018-06-15T07:27:15.355Z,47.80
2018-06-15T07:28:15.332Z,44.10
2018-06-15T07:29:15.301Z,47.20
2018-06-15T07:30:15.308Z,45.30
2018-06-15T07:31:15.255Z,47.10
2018-06-15T07:32:15.230Z,48.00
2018-06-15T07:33:15.211Z,43.60
2018-06-15T07:34:15.189Z,42.20
2018-06-15T07:35:15.165Z,45.40
2018-06-15T07:36:15.135Z,47.50
2018-06-15T07:37:15.114Z,44.40
2018-06-15T07:38:15.093Z,43.50
2018-06-15T07:39:15.082Z,44.50
2018-06-15T07:40:15.046Z,51.20
2018-06-15T07:41:15.020Z,44.20
2018-06-15T07:42:14.997Z,50.80
2018-06-15T07:43:14.972Z,45.00
2018-06-15T07:44:14.956Z,45.30
2018-06-15T07:45:14.930Z,41.30
2018-06-15T07:46:14.903Z,40.30
2018-06-15T07:47:14.888Z,40.30
2018-06-15T07:48:14.859Z,39.50
2018-06-15T07:49:14.840Z,44.60
2018-06-15T07:50:14.807Z,38.40
2018-06-15T07:51:14.781Z,39.90
2018-06-15T07:52:14.761Z,37.80
2018-06-15T07:53:14.740Z,37.10
2018-06-15T07:54:14.714Z,37.40
2018-06-15T07:55:14.707Z,39.00
2018-06-15T07:56:14.671Z,34.60
2018-06-15T07:57:14.641Z,37.10
2018-06-15T07:58:14.627Z,37.40
2018-06-15T07:59:14.615Z,34.10
2018-06-15T08:00:14.577Z,34.10
2018-06-15T08:01:14.555Z,42.40
2018-06-15T08:02:14.522Z,37.60
2018-06-15T08:03:14.512Z,34.20
2018-06-15T08:04:14.483Z,33.70
2018-06-15T08:05:14.473Z,36.10
2018-06-15T08:06:14.437Z,38.80
2018-06-15T08:07:14.413Z,41.30
2018-06-15T08:08:14.386Z,37.40
2018-06-15T08:09:14.365Z,36.10
2018-06-15T08:10:14.385Z,32.10
2018-06-15T08:11:14.329Z,35.20
2018-06-15T08:12:14.285Z,34.50
2018-06-15T08:13:14.270Z,34.60
2018-06-15T08:14:14.244Z,33.40
2018-06-15T08:15:14.221Z,33.60
2018-06-15T08:16:14.200Z,35.40
2018-06-15T08:17:14.170Z,37.90
2018-06-15T08:18:14.153Z,38.40
2018-06-15T08:19:14.133Z,33.50
2018-06-15T08:20:14.099Z,32.30
2018-06-15T08:21:14.080Z,30.50
2018-06-15T08:22:14.049Z,34.30
2018-06-15T08:23:14.029Z,33.30
2018-06-15T08:24:14.013Z,32.60
2018-06-15T08:25:13.991Z,30.10
2018-06-15T08:26:13.962Z,33.60
2018-06-15T08:27:13.935Z,33.60
2018-06-15T08:28:13.921Z,36.20
2018-06-15T08:29:13.893Z,31.60
2018-06-15T08:30:13.869Z,34.30
2018-06-15T08:31:13.851Z,33.80
2018-06-15T08:32:13.818Z,35.20
2018-06-15T08:33:13.797Z,34.70
2018-06-15T08:34:13.777Z,36.00
2018-06-15T08:35:13.748Z,36.90
2018-06-15T08:36:13.733Z,33.30
2018-06-15T08:37:13.708Z,34.70
2018-06-15T08:38:13.691Z,35.70
2018-06-15T08:39:13.664Z,36.20
2018-06-15T08:40:13.878Z,35.80
2018-06-15T08:41:13.616Z,37.00
2018-06-15T08:42:13.596Z,35.60
2018-06-15T08:43:13.577Z,35.10
2018-06-15T08:44:13.542Z,33.20
2018-06-15T08:45:13.520Z,30.60
2018-06-15T08:46:13.502Z,31.10
2018-06-15T08:47:13.469Z,34.00
2018-06-15T08:48:13.453Z,34.70
2018-06-15T08:49:13.429Z,32.20
2018-06-15T08:50:13.404Z,31.30
2018-06-15T08:51:13.385Z,32.10
2018-06-15T08:52:13.353Z,30.00
2018-06-15T08:53:13.333Z,27.20
2018-06-15T08:54:13.308Z,26.40
2018-06-15T08:55:13.284Z,25.70
2018-06-15T08:56:13.264Z,22.50
2018-06-15T08:57:13.242Z,21.70
2018-06-15T08:58:13.218Z,23.40
2018-06-15T08:59:13.189Z,25.30
2018-06-15T09:00:13.177Z,24.60
2018-06-15T09:01:13.160Z,23.70
2018-06-15T09:02:13.126Z,25.00
2018-06-15T09:03:13.107Z,27.40
2018-06-15T09:04:13.077Z,24.10
2018-06-15T09:05:13.054Z,27.70
2018-06-15T09:06:13.033Z,27.00
2018-06-15T09:07:13.013Z,29.30
2018-06-15T09:08:12.985Z,24.10
2018-06-15T09:09:12.958Z,25.90
2018-06-15T09:10:12.953Z,26.70
2018-06-15T09:11:12.918Z,27.10
2018-06-15T09:12:12.889Z,29.40
2018-06-15T09:13:12.868Z,27.90
2018-06-15T09:14:12.842Z,25.80
2018-06-15T09:15:12.820Z,25.30
2018-06-15T09:16:12.842Z,22.50
2018-06-15T09:17:12.773Z,25.30
2018-06-15T09:18:12.824Z,19.50
2018-06-15T09:19:12.891Z,15.10
2018-06-15T09:20:12.701Z,13.80
2018-06-15T09:21:12.686Z,13.60
2018-06-15T09:22:12.654Z,11.00
2018-06-15T09:23:12.701Z,10.90
2018-06-15T09:24:12.605Z,9.10
2018-06-15T09:25:12.591Z,10.00
2018-06-15T09:26:12.559Z,9.30
2018-06-15T09:27:12.536Z,10.10
2018-06-15T09:28:12.514Z,10.40
2018-06-15T09:29:12.493Z,10.70
2018-06-15T09:30:12.466Z,12.30
2018-06-15T09:31:12.449Z,9.10
2018-06-15T09:32:12.420Z,9.10
2018-06-15T09:33:12.441Z,10.30
2018-06-15T09:34:12.377Z,8.50
2018-06-15T09:35:12.354Z,8.00
2018-06-15T09:36:12.333Z,8.80
2018-06-15T09:37:12.304Z,9.20
2018-06-15T09:38:12.280Z,9.10
2018-06-15T09:39:12.252Z,8.00
2018-06-15T09:40:12.236Z,7.40
2018-06-15T09:41:12.234Z,9.70
2018-06-15T09:42:12.266Z,11.10
2018-06-15T09:43:12.165Z,8.30
2018-06-15T09:44:12.139Z,7.00
2018-06-15T09:45:12.116Z,8.60
2018-06-15T09:46:12.098Z,11.00
2018-06-15T09:47:12.149Z,7.40
2018-06-15T09:48:12.053Z,8.10
2018-06-15T09:49:12.075Z,8.30
2018-06-15T09:50:12.011Z,8.30
2018-06-15T09:51:11.973Z,8.60
2018-06-15T09:52:11.951Z,8.70
2018-06-15T09:53:11.921Z,8.90
2018-06-15T09:54:11.957Z,8.90
2018-06-15T09:55:11.885Z,11.80
2018-06-15T09:56:11.852Z,11.00
2018-06-15T09:57:11.878Z,10.90
2018-06-15T09:58:11.840Z,9.60
2018-06-15T09:59:11.853Z,10.90
2018-06-15T10:00:11.759Z,11.60
2018-06-15T10:01:11.748Z,9.40
2018-06-15T10:02:11.721Z,9.50
2018-06-15T10:03:11.746Z,10.30
2018-06-15T10:04:11.751Z,9.70
2018-06-15T10:05:11.641Z,9.00
2018-06-15T10:06:11.707Z,9.80
2018-06-15T10:07:11.601Z,9.80
2018-06-15T10:08:11.571Z,8.60
2018-06-15T10:09:11.589Z,8.80
2018-06-15T10:10:11.583Z,9.90
2018-06-15T10:11:11.565Z,9.90
2018-06-15T10:12:11.497Z,9.70
2018-06-15T10:13:11.631Z,8.20
2018-06-15T10:14:11.441Z,8.10
2018-06-15T10:15:11.417Z,7.10
2018-06-15T10:16:11.385Z,7.90
2018-06-15T10:17:11.364Z,7.70
2018-06-15T10:18:11.337Z,6.40
2018-06-15T10:19:11.366Z,8.30
2018-06-15T10:20:11.297Z,7.90
2018-06-15T10:21:11.312Z,6.70
2018-06-15T10:22:11.346Z,8.60
2018-06-15T10:23:11.228Z,7.70
2018-06-15T10:24:11.209Z,8.00
2018-06-15T10:25:11.270Z,8.10
2018-06-15T10:26:11.163Z,7.80
2018-06-15T10:27:11.167Z,8.00
2018-06-15T10:28:11.117Z,7.80
2018-06-15T10:29:11.088Z,7.00
2018-06-15T10:30:11.068Z,8.60
2018-06-15T10:31:11.043Z,9.00
2018-06-15T10:32:11.022Z,7.50
2018-06-15T10:33:11.054Z,7.60
2018-06-15T10:34:10.975Z,6.90
2018-06-15T10:35:10.947Z,7.40
2018-06-15T10:36:10.957Z,8.30
2018-06-15T10:37:10.906Z,8.90
2018-06-15T10:38:10.934Z,9.50
2018-06-15T10:39:10.967Z,7.90
2018-06-15T10:40:10.885Z,7.90
2018-06-15T10:41:10.873Z,9.70
2018-06-15T10:42:10.820Z,6.90
2018-06-15T10:43:10.833Z,7.80
2018-06-15T10:44:10.748Z,8.40
2018-06-15T10:45:10.808Z,8.20
2018-06-15T10:46:10.723Z,7.70
2018-06-15T10:47:10.683Z,7.60
2018-06-15T10:48:10.694Z,8.50
2018-06-15T10:49:10.630Z,8.60
2018-06-15T10:50:10.630Z,8.00
2018-06-15T10:51:10.649Z,6.50
2018-06-15T10:52:10.588Z,7.20
2018-06-15T10:53:10.551Z,6.30
2018-06-15T10:54:10.582Z,6.10
2018-06-15T10:55:10.525Z,6.00
2018-06-15T10:56:10.522Z,7.20
2018-06-15T10:57:10.453Z,6.40
2018-06-15T10:58:10.471Z,6.60
2018-06-15T10:59:10.430Z,7.50
2018-06-15T11:00:10.390Z,8.20
2018-06-15T11:01:10.363Z,8.20
2018-06-15T11:02:10.341Z,6.90
2018-06-15T11:03:10.319Z,7.10
2018-06-15T11:04:10.302Z,7.40
2018-06-15T11:05:10.348Z,8.60
2018-06-15T11:06:10.253Z,7.70
2018-06-15T11:07:10.277Z,8.20
2018-06-15T11:08:10.194Z,7.20
2018-06-15T11:09:10.186Z,7.60
2018-06-15T11:10:10.156Z,8.50
2018-06-15T11:11:10.129Z,8.50
2018-06-15T11:12:10.109Z,7.70
2018-06-15T11:13:10.089Z,9.00
2018-06-15T11:14:10.058Z,7.90
2018-06-15T11:15:10.041Z,8.40
2018-06-15T11:16:10.013Z,8.30
2018-06-15T11:17:09.992Z,7.70
2018-06-15T11:18:09.976Z,9.00
2018-06-15T11:19:09.945Z,8.10
2018-06-15T11:20:09.921Z,8.30
2018-06-15T11:21:09.900Z,8.80
2018-06-15T11:22:09.877Z,8.30
2018-06-15T11:23:09.854Z,8.70
2018-06-15T11:24:09.833Z,9.30
2018-06-15T11:25:09.810Z,8.80
2018-06-15T11:26:09.791Z,10.20
2018-06-15T11:27:09.762Z,9.50
2018-06-15T11:28:09.738Z,9.60
2018-06-15T11:29:09.720Z,8.70
2018-06-15T11:30:09.699Z,10.40
2018-06-15T11:31:09.701Z,8.20
2018-06-15T11:32:09.657Z,7.60
2018-06-15T11:33:09.627Z,8.40
2018-06-15T11:34:09.603Z,8.10
2018-06-15T11:35:09.584Z,9.70
2018-06-15T11:36:09.558Z,7.90
2018-06-15T11:37:09.535Z,8.60
2018-06-15T11:38:09.510Z,10.10
2018-06-15T11:39:09.486Z,8.80
2018-06-15T11:40:09.475Z,9.00
2018-06-15T11:41:09.536Z,10.00
2018-06-15T11:42:09.424Z,8.60
2018-06-15T11:43:09.408Z,8.10
2018-06-15T11:44:09.370Z,7.70
2018-06-15T11:45:09.358Z,7.50
2018-06-15T11:46:09.327Z,7.90
2018-06-15T11:47:09.310Z,7.90
2018-06-15T11:48:09.289Z,9.00
2018-06-15T11:49:09.265Z,8.70
2018-06-15T11:50:09.237Z,7.80
2018-06-15T11:51:09.223Z,7.70
2018-06-15T11:52:09.191Z,8.10
2018-06-15T11:53:09.176Z,8.90
2018-06-15T11:54:09.152Z,8.90
2018-06-15T11:55:09.156Z,7.90
2018-06-15T11:56:09.105Z,8.20
2018-06-15T11:57:09.080Z,7.90
2018-06-15T11:58:09.061Z,7.90
2018-06-15T11:59:09.053Z,8.50
2018-06-15T12:00:09.024Z,8.70
2018-06-15T12:01:08.993Z,8.60
2018-06-15T12:02:08.973Z,8.10
2018-06-15T12:03:08.945Z,8.30
2018-06-15T12:04:08.929Z,8.20
2018-06-15T12:05:08.905Z,8.70
2018-06-15T12:06:08.886Z,7.70
2018-06-15T12:07:08.863Z,9.20
2018-06-15T12:08:08.840Z,9.10
2018-06-15T12:09:08.892Z,7.50
2018-06-15T12:10:08.797Z,7.20
2018-06-15T12:11:08.772Z,8.10
2018-06-15T12:12:08.753Z,8.40
2018-06-15T12:13:08.726Z,7.60
2018-06-15T12:14:08.707Z,8.50
2018-06-15T12:15:08.685Z,8.20
2018-06-15T12:16:08.656Z,8.20
2018-06-15T12:17:08.644Z,8.10
2018-06-15T12:18:08.611Z,9.00
2018-06-15T12:19:08.599Z,8.30
2018-06-15T12:20:08.579Z,7.80
2018-06-15T12:21:08.546Z,8.50
2018-06-15T12:22:08.533Z,8.60
2018-06-15T12:23:08.532Z,7.70
2018-06-15T12:24:08.479Z,8.50
2018-06-15T12:25:08.461Z,7.90
2018-06-15T12:26:08.437Z,7.40
2018-06-15T12:27:08.429Z,7.20
2018-06-15T12:28:08.393Z,8.10
2018-06-15T12:29:08.380Z,7.70
2018-06-15T12:30:08.350Z,8.90
2018-06-15T12:31:08.323Z,8.80
2018-06-15T12:32:08.320Z,7.60
2018-06-15T12:33:08.285Z,8.30
2018-06-15T12:34:08.285Z,9.20
2018-06-15T12:35:08.250Z,7.60
2018-06-15T12:36:08.218Z,7.80
2018-06-15T12:37:08.194Z,8.20
2018-06-15T12:38:08.173Z,7.80
2018-06-15T12:39:08.153Z,7.40
2018-06-15T12:40:08.127Z,8.30
2018-06-15T12:41:08.113Z,9.10
2018-06-15T12:42:08.082Z,8.60
2018-06-15T12:43:08.068Z,7.10
2018-06-15T12:44:08.045Z,10.10
2018-06-15T12:45:08.037Z,7.90
2018-06-15T12:46:08.022Z,7.30
2018-06-15T12:47:07.979Z,7.50
2018-06-15T12:48:07.955Z,8.60
2018-06-15T12:49:07.929Z,7.90
2018-06-15T12:50:07.919Z,7.50